Time;durP1;ratioP1;P1;durP2;ratioP2;P2;SDS_P1;SDS_P2;PMS_P1;PMS_P2;Temp;Humidity;BMP_temperature;BMP_pressure;BME280_temperature;BME280_humidity;BME280_pressure;Samples;Min_cycle;Max_cycle;Signal;HPM_P1;HPM_P2
2022/12/05 00:01:26;;;;;;;43.13;23.77;;;2.00;99.90;;;;;;4160235;28;20308;-65
2022/12/05 00:03:28;;;;;;;44.70;24.17;;;2.00;99.90;;;;;;4160388;28;20271;-64
2022/12/05 00:05:29;;;;;;;43.17;24.10;;;2.00;99.90;;;;;;4160649;28;20042;-64
2022/12/05 00:07:30;;;;;;;45.80;24.57;;;2.00;99.90;;;;;;4160257;28;20271;-64
2022/12/05 00:09:31;;;;;;;46.73;24.67;;;2.00;99.90;;;;;;4161387;28;20635;-64
2022/12/05 00:11:35;;;;;;;47.17;25.50;;;2.00;99.90;;;;;;4160089;28;20646;-63
2022/12/05 00:13:38;;;;;;;50.30;25.63;;;2.00;99.90;;;;;;4161693;28;20317;-63
2022/12/05 00:15:40;;;;;;;42.33;23.27;;;2.00;99.90;;;;;;4160008;28;20329;-62
2022/12/05 00:17:41;;;;;;;43.37;23.57;;;2.00;99.90;;;;;;4161390;28;20271;-63
2022/12/05 00:19:42;;;;;;;47.13;23.17;;;2.00;99.90;;;;;;4159847;28;20291;-63
2022/12/05 00:21:43;;;;;;;43.17;22.17;;;1.90;99.90;;;;;;4161040;28;20333;-64
2022/12/05 00:23:45;;;;;;;42.93;22.23;;;1.90;99.90;;;;;;4160325;28;20333;-65
2022/12/05 00:25:46;;;;;;;41.77;22.43;;;1.90;99.90;;;;;;4160338;28;20316;-63
2022/12/05 00:27:47;;;;;;;43.00;23.10;;;1.90;99.90;;;;;;4159999;28;20684;-64
2022/12/05 00:29:48;;;;;;;39.03;21.73;;;1.90;99.90;;;;;;4160404;28;20263;-66
2022/12/05 00:31:49;;;;;;;42.67;22.93;;;1.90;99.90;;;;;;4160464;28;20271;-64
2022/12/05 00:33:52;;;;;;;38.13;21.20;;;1.90;99.90;;;;;;4159396;28;20274;-64
2022/12/05 00:35:53;;;;;;;43.30;22.50;;;1.80;99.90;;;;;;4161253;28;20271;-63
2022/12/05 00:37:54;;;;;;;34.73;19.87;;;1.90;99.90;;;;;;4160141;28;20662;-63
2022/12/05 00:39:55;;;;;;;40.87;21.53;;;1.80;99.90;;;;;;4160770;28;20341;-63
2022/12/05 00:41:56;;;;;;;42.23;20.43;;;1.80;99.90;;;;;;4161779;28;20684;-63
2022/12/05 00:43:59;;;;;;;34.17;19.13;;;1.80;99.90;;;;;;4164146;28;20321;-64
2022/12/05 00:46:13;;;;;;;42.33;20.07;;;1.80;99.90;;;;;;4162737;28;20784;-64
2022/12/05 00:48:14;;;;;;;40.83;21.47;;;1.80;99.90;;;;;;4163434;28;20662;-63
2022/12/05 00:50:15;;;;;;;38.20;20.67;;;1.70;99.90;;;;;;4162341;28;20263;-63
2022/12/05 00:52:16;;;;;;;42.77;20.80;;;1.70;99.90;;;;;;4163935;28;20600;-64
2022/12/05 00:54:18;;;;;;;38.00;20.43;;;1.60;99.90;;;;;;4162739;28;20765;-63
2022/12/05 00:56:22;;;;;;;42.20;22.33;;;1.60;99.90;;;;;;4163416;28;20398;-63
2022/12/05 00:58:23;;;;;;;39.33;22.90;;;1.60;99.90;;;;;;4177199;28;20269;-63
2022/12/05 01:00:24;;;;;;;41.37;22.80;;;1.50;99.90;;;;;;4163125;28;20754;-64
2022/12/05 01:02:25;;;;;;;49.47;24.53;;;1.50;99.90;;;;;;4162816;28;20271;-63
2022/12/05 01:04:26;;;;;;;48.33;25.47;;;1.50;99.90;;;;;;4162759;28;20271;-65
2022/12/05 01:06:28;;;;;;;53.83;27.57;;;1.50;99.90;;;;;;4163390;28;20266;-60
2022/12/05 01:08:29;;;;;;;49.90;26.30;;;1.40;99.90;;;;;;4162529;28;20755;-64
2022/12/05 01:10:30;;;;;;;46.70;24.90;;;1.40;99.90;;;;;;4162723;28;20318;-62
2022/12/05 01:12:31;;;;;;;53.00;26.30;;;1.30;99.90;;;;;;4162560;28;20328;-62
2022/12/05 01:14:33;;;;;;;49.73;25.97;;;1.30;99.90;;;;;;4145889;28;20283;-62
2022/12/05 01:16:36;;;;;;;53.20;27.20;;;1.40;99.90;;;;;;4162224;28;20267;-64
2022/12/05 01:18:37;;;;;;;51.67;26.70;;;1.40;99.90;;;;;;4162653;28;20271;-62
2022/12/05 01:20:40;;;;;;;54.23;28.53;;;1.40;99.90;;;;;;4162373;28;20294;-63
2022/12/05 01:22:41;;;;;;;51.87;27.30;;;1.40;99.90;;;;;;4163487;28;20333;-64
2022/12/05 01:24:42;;;;;;;52.97;27.67;;;1.40;99.90;;;;;;4161773;28;20267;-62
2022/12/05 01:26:44;;;;;;;45.90;25.53;;;1.40;99.90;;;;;;4145656;28;20330;-65
2022/12/05 01:28:46;;;;;;;38.40;21.33;;;1.40;99.90;;;;;;4161687;28;20262;-63
2022/12/05 01:30:48;;;;;;;40.33;21.63;;;1.40;99.90;;;;;;4162811;28;20337;-66
2022/12/05 01:32:50;;;;;;;46.13;24.73;;;1.40;99.90;;;;;;4162585;28;20305;-62
2022/12/05 01:34:51;;;;;;;43.83;23.70;;;1.30;99.90;;;;;;4162810;28;20266;-64
2022/12/05 01:36:52;;;;;;;46.43;26.50;;;1.30;99.90;;;;;;4162604;28;20585;-63
2022/12/05 01:38:54;;;;;;;55.10;29.30;;;1.30;99.90;;;;;;4160786;28;20282;-64
2022/12/05 01:41:03;;;;;;;54.73;28.40;;;1.20;99.90;;;;;;4162975;28;20306;-64
2022/12/05 01:43:14;;;;;;;53.03;26.07;;;1.20;99.90;;;;;;4161204;28;20329;-63
2022/12/05 01:45:37;;;;;;;48.45;24.42;;;1.20;99.90;;;;;;4162992;28;20339;-62
2022/12/05 01:47:38;;;;;;;45.00;22.93;;;1.20;99.90;;;;;;4161541;28;20045;-62
2022/12/05 01:49:41;;;;;;;44.90;24.23;;;1.10;99.90;;;;;;4162392;28;20274;-61
2022/12/05 01:51:47;;;;;;;39.83;22.13;;;1.10;99.90;;;;;;4161902;28;20270;-63
2022/12/05 01:53:50;;;;;;;46.07;23.70;;;1.10;99.90;;;;;;4161817;28;20279;-62
2022/12/05 01:55:52;;;;;;;44.57;22.87;;;1.10;99.90;;;;;;4161841;28;20270;-65
2022/12/05 01:57:56;;;;;;;46.93;23.87;;;1.00;99.90;;;;;;4162183;28;20282;-64
2022/12/05 02:00:02;;;;;;;44.77;24.23;;;1.00;99.90;;;;;;4161214;28;20376;-61
2022/12/05 02:02:04;;;;;;;45.40;23.50;;;1.00;99.90;;;;;;4162178;28;20291;-62
2022/12/05 02:04:06;;;;;;;48.23;24.27;;;1.00;99.90;;;;;;4160836;28;20282;-62
2022/12/05 02:06:08;;;;;;;50.77;24.40;;;1.00;99.90;;;;;;4162071;28;20286;-63
2022/12/05 02:08:10;;;;;;;44.17;25.43;;;1.00;99.90;;;;;;4160871;28;20321;-61
2022/12/05 02:10:12;;;;;;;43.27;24.30;;;1.00;99.90;;;;;;4162675;28;20266;-60
2022/12/05 02:12:13;;;;;;;49.17;23.00;;;1.10;99.90;;;;;;4161185;28;20271;-63
2022/12/05 02:14:21;;;;;;;40.27;22.43;;;1.00;99.90;;;;;;4163064;28;20271;-64
2022/12/05 02:16:22;;;;;;;43.93;22.77;;;1.00;99.90;;;;;;4161520;28;20670;-62
2022/12/05 02:18:35;;;;;;;39.73;21.37;;;1.00;99.90;;;;;;4161960;28;20270;-64
2022/12/05 02:21:06;;;;;;;36.90;20.50;;;1.00;99.90;;;;;;4161524;28;20333;-64
2022/12/05 02:23:28;;;;;;;36.93;20.43;;;1.00;99.90;;;;;;4162606;28;20333;-65
2022/12/05 02:25:39;;;;;;;39.43;21.40;;;0.90;99.90;;;;;;4161350;28;20283;-62
2022/12/05 02:27:49;;;;;;;39.03;20.17;;;0.90;99.90;;;;;;4161790;28;20302;-63
2022/12/05 02:30:06;;;;;;;44.50;22.58;;;0.90;99.90;;;;;;4161279;28;20037;-61
2022/12/05 02:32:19;;;;;;;35.93;18.40;;;0.90;99.90;;;;;;4162017;28;20033;-63
2022/12/05 02:34:51;;;;;;;39.43;21.00;;;0.90;99.90;;;;;;4161124;28;20273;-61
2022/12/05 02:37:02;;;;;;;43.87;21.80;;;0.90;99.90;;;;;;4162101;28;20682;-60
2022/12/05 02:39:13;;;;;;;38.65;22.10;;;1.00;99.90;;;;;;4160777;28;20297;-63
2022/12/05 02:41:46;;;;;;;43.37;20.53;;;1.00;99.90;;;;;;4161879;28;20449;-63
2022/12/05 02:43:58;;;;;;;36.13;21.00;;;1.00;99.90;;;;;;4144058;28;20279;-64
2022/12/05 02:46:07;;;;;;;38.27;22.60;;;0.90;99.90;;;;;;4161596;28;20270;-62
2022/12/05 02:48:11;;;;;;;41.83;21.90;;;0.90;99.90;;;;;;4160337;28;20333;-62
2022/12/05 02:50:16;;;;;;;40.17;21.40;;;0.90;99.90;;;;;;4161075;28;20491;-62
2022/12/05 02:52:18;;;;;;;34.53;19.90;;;0.80;99.90;;;;;;4160161;28;20785;-62
2022/12/05 02:54:27;;;;;;;34.40;19.87;;;0.80;99.90;;;;;;4161783;28;20769;-65
2022/12/05 02:56:31;;;;;;;41.20;19.87;;;0.80;99.90;;;;;;4160918;28;20279;-63
2022/12/05 02:58:37;;;;;;;41.03;20.23;;;0.80;99.90;;;;;;4161839;28;20506;-64
2022/12/05 03:00:43;;;;;;;35.57;19.37;;;0.90;99.90;;;;;;4159697;28;20334;-63
2022/12/05 03:02:44;;;;;;;33.83;19.17;;;0.90;99.90;;;;;;4161916;28;20266;-62
2022/12/05 03:04:46;;;;;;;40.73;20.47;;;0.80;99.90;;;;;;4160254;28;20759;-63
2022/12/05 03:06:56;;;;;;;36.27;19.40;;;0.90;99.90;;;;;;4161448;28;20274;-63
2022/12/05 03:09:24;;;;;;;;;;;0.80;99.90;;;;;;4161615;28;20321;-63
2022/12/05 03:11:29;;;;;;;36.50;18.97;;;0.80;99.90;;;;;;4138463;28;19951;-62
2022/12/05 03:13:41;;;;;;;32.73;19.27;;;0.80;99.90;;;;;;4160885;28;20789;-62
2022/12/05 03:15:55;;;;;;;39.40;21.13;;;0.80;99.90;;;;;;4161696;28;20317;-62
2022/12/05 03:18:05;;;;;;;38.70;21.60;;;0.80;99.90;;;;;;4159818;28;20287;-62
2022/12/05 03:20:19;;;;;;;36.05;19.95;;;0.80;99.90;;;;;;4161626;28;20344;-64
2022/12/05 03:22:49;;;;;;;35.37;21.13;;;0.80;99.90;;;;;;4160466;28;20569;-63
2022/12/05 03:24:51;;;;;;;34.33;19.30;;;0.90;99.90;;;;;;4147278;28;20827;-63
2022/12/05 03:26:55;;;;;;;34.90;20.57;;;0.90;99.90;;;;;;4159906;28;20654;-64
2022/12/05 03:28:56;;;;;;;37.90;20.10;;;0.90;99.90;;;;;;4161654;28;20297;-62
2022/12/05 03:31:01;;;;;;;40.53;21.83;;;0.90;99.90;;;;;;4160346;28;20340;-62
2022/12/05 03:33:05;;;;;;;35.20;20.57;;;0.90;99.90;;;;;;4176068;28;20278;-62
2022/12/05 03:35:24;;;;;;;33.43;19.47;;;0.80;99.90;;;;;;4160363;28;20755;-61
2022/12/05 03:37:51;;;;;;;34.03;19.40;;;0.80;99.90;;;;;;4161507;28;20262;-62
2022/12/05 03:40:24;;;;;;;37.17;19.77;;;0.80;99.90;;;;;;4160345;28;20761;-64
2022/12/05 03:42:32;;;;;;;35.57;20.17;;;0.90;99.90;;;;;;4127546;28;20341;-62
2022/12/05 03:44:47;;;;;;;36.90;18.77;;;0.80;99.90;;;;;;4160650;28;20279;-63
2022/12/05 03:46:58;;;;;;;34.90;20.73;;;0.80;99.90;;;;;;4160234;28;20541;-63
2022/12/05 03:48:59;;;;;;;;;;;0.80;99.90;;;;;;4160831;28;20263;-65
2022/12/05 03:51:02;;;;;;;;;;;0.70;99.90;;;;;;4160709;28;20900;-63
2022/12/05 03:53:07;;;;;;;31.37;17.13;;;0.70;99.90;;;;;;4160202;28;20369;-63
2022/12/05 03:55:12;;;;;;;36.90;19.07;;;0.70;99.90;;;;;;4161088;28;20274;-64
2022/12/05 03:57:28;;;;;;;37.37;18.97;;;0.60;99.90;;;;;;4159833;28;20650;-66
2022/12/05 03:59:36;;;;;;;33.70;19.37;;;0.60;99.90;;;;;;4160978;28;20259;-65
2022/12/05 04:01:40;;;;;;;32.70;17.47;;;0.60;99.90;;;;;;4160267;28;20291;-63
2022/12/05 04:03:50;;;;;;;34.00;19.07;;;0.70;99.90;;;;;;4161267;28;20723;-63
2022/12/05 04:05:59;;;;;;;33.40;18.57;;;0.80;99.90;;;;;;4160429;28;20313;-65
2022/12/05 04:08:05;;;;;;;35.77;19.13;;;0.80;99.90;;;;;;4161134;28;20271;-63
2022/12/05 04:10:13;;;;;;;33.33;19.53;;;0.90;99.90;;;;;;4159703;28;20868;-63
2022/12/05 04:12:20;;;;;;;34.03;19.20;;;0.90;99.90;;;;;;4161053;28;20278;-63
2022/12/05 04:14:28;;;;;;;33.33;19.03;;;0.90;99.90;;;;;;4160658;28;20324;-61
2022/12/05 04:22:00;;;;;;;36.53;19.70;;;1.10;99.90;;;;;;4096891;28;20358;-63
2022/12/05 04:26:27;;;;;;;38.87;21.10;;;1.00;99.90;;;;;;4114541;28;20325;-62
2022/12/05 04:28:47;;;;;;;37.57;19.33;;;1.00;99.90;;;;;;4163380;28;20336;-62
2022/12/05 04:31:06;;;;;;;33.17;19.67;;;1.00;99.90;;;;;;4145289;28;20625;-61
2022/12/05 04:33:18;;;;;;;41.20;20.57;;;0.90;99.90;;;;;;4164181;28;20083;-62
2022/12/05 04:35:31;;;;;;;31.30;19.17;;;0.90;99.90;;;;;;4162912;28;20270;-64
2022/12/05 04:37:36;;;;;;;35.90;18.43;;;0.90;99.90;;;;;;4163568;28;20282;-62
2022/12/05 04:40:00;;;;;;;35.03;19.70;;;0.90;99.90;;;;;;4162897;28;20332;-63
2022/12/05 04:42:06;;;;;;;41.40;21.57;;;0.80;99.90;;;;;;4162393;28;20294;-62
2022/12/05 04:44:11;;;;;;;39.63;19.27;;;0.80;99.90;;;;;;4162560;28;20282;-61
2022/12/05 04:46:15;;;;;;;34.23;18.37;;;0.80;99.90;;;;;;4163025;28;20844;-61
2022/12/05 04:48:18;;;;;;;35.87;19.50;;;0.70;99.90;;;;;;4161884;28;20341;-62
2022/12/05 04:50:21;;;;;;;36.37;20.40;;;0.70;99.90;;;;;;4163509;28;20745;-61
2022/12/05 04:52:24;;;;;;;40.03;20.50;;;0.60;99.90;;;;;;4161317;28;20763;-63
2022/12/05 04:54:34;;;;;;;35.03;20.20;;;0.60;99.90;;;;;;4163647;28;20325;-63
2022/12/05 04:56:38;;;;;;;39.67;22.23;;;0.60;99.90;;;;;;4160887;28;20294;-63
2022/12/05 04:58:39;;;;;;;38.77;20.10;;;0.60;99.90;;;;;;4162176;28;20634;-64
2022/12/05 05:00:54;;;;;;;39.37;19.83;;;0.60;99.90;;;;;;4162028;28;20298;-62
2022/12/05 05:03:13;;;;;;;35.13;19.50;;;0.60;99.90;;;;;;4163487;28;20348;-62
2022/12/05 05:05:18;;;;;;;32.00;18.33;;;0.70;99.90;;;;;;4162200;28;20263;-61
2022/12/05 05:07:19;;;;;;;45.17;24.27;;;0.70;99.90;;;;;;4163117;28;20320;-65
2022/12/05 05:09:20;;;;;;;43.17;22.43;;;0.70;99.90;;;;;;4162093;28;20312;-64
2022/12/05 05:11:27;;;;;;;35.93;20.40;;;0.70;99.90;;;;;;4162829;28;20286;-64
2022/12/05 05:13:28;;;;;;;38.20;21.43;;;0.70;99.90;;;;;;4162614;28;20715;-66
2022/12/05 05:15:29;;;;;;;39.13;19.93;;;0.60;99.90;;;;;;4161742;28;20698;-62
2022/12/05 05:17:30;;;;;;;39.27;21.30;;;0.60;99.90;;;;;;4162749;28;20262;-64
2022/12/05 05:19:31;;;;;;;38.03;21.60;;;0.60;99.90;;;;;;4162036;28;20767;-62
2022/12/05 05:21:35;;;;;;;39.83;22.23;;;0.60;99.90;;;;;;4162589;28;20357;-63
2022/12/05 05:23:36;;;;;;;35.83;20.33;;;0.60;99.90;;;;;;4161722;28;20348;-63
2022/12/05 05:25:37;;;;;;;38.53;21.70;;;0.60;99.90;;;;;;4162549;28;20321;-62
2022/12/05 05:27:38;;;;;;;40.00;21.70;;;0.60;99.90;;;;;;4160330;28;20283;-63
2022/12/05 05:29:40;;;;;;;39.03;21.77;;;0.60;99.90;;;;;;4162476;28;20264;-61
2022/12/05 05:31:41;;;;;;;39.63;21.80;;;0.60;99.90;;;;;;4161629;28;20336;-62
2022/12/05 05:33:43;;;;;;;37.83;20.70;;;0.60;99.90;;;;;;4161104;28;20275;-65
2022/12/05 05:35:44;;;;;;;36.23;20.13;;;0.60;99.90;;;;;;4146652;28;20412;-64
2022/12/05 05:37:45;;;;;;;40.90;23.60;;;0.70;99.90;;;;;;4162454;28;20360;-62
2022/12/05 05:39:46;;;;;;;39.83;22.60;;;0.70;99.90;;;;;;4161404;28;20340;-63
2022/12/05 05:41:47;;;;;;;44.87;23.77;;;0.70;99.90;;;;;;4162536;28;20377;-62
2022/12/05 05:43:49;;;;;;;39.67;24.20;;;0.70;99.90;;;;;;4161648;28;20339;-64
2022/12/05 05:45:50;;;;;;;47.03;23.47;;;0.70;99.90;;;;;;4161802;28;20316;-63
2022/12/05 05:47:51;;;;;;;43.93;23.80;;;0.70;99.90;;;;;;4161698;28;20282;-64
2022/12/05 05:49:53;;;;;;;41.70;23.93;;;0.80;99.90;;;;;;4161042;28;20305;-62
2022/12/05 05:51:54;;;;;;;42.03;22.90;;;0.80;99.90;;;;;;4161983;28;20309;-63
2022/12/05 05:53:57;;;;;;;38.37;23.40;;;0.80;99.90;;;;;;4160974;28;20341;-61
2022/12/05 05:56:03;;;;;;;45.10;24.57;;;0.80;99.90;;;;;;4162202;28;20790;-64
2022/12/05 05:58:04;;;;;;;51.53;25.83;;;0.80;99.90;;;;;;4161307;28;20611;-61
2022/12/05 06:00:06;;;;;;;50.90;26.97;;;0.80;99.90;;;;;;4162060;28;20282;-62
2022/12/05 06:02:07;;;;;;;58.60;30.50;;;0.80;99.90;;;;;;4161709;28;20275;-62
2022/12/05 06:04:08;;;;;;;67.90;33.70;;;0.80;99.90;;;;;;4162575;28;20267;-62
2022/12/05 06:06:12;;;;;;;55.80;32.07;;;0.80;99.90;;;;;;4160636;28;20737;-62
2022/12/05 06:08:13;;;;;;;49.83;27.17;;;0.80;99.90;;;;;;4162460;28;20275;-62
2022/12/05 06:10:14;;;;;;;51.83;26.97;;;0.90;99.90;;;;;;4160812;28;20271;-62
2022/12/05 06:12:16;;;;;;;53.17;30.40;;;0.90;99.90;;;;;;4162199;28;20762;-62
2022/12/05 06:14:17;;;;;;;49.23;29.13;;;0.90;99.90;;;;;;4161832;28;20305;-61
2022/12/05 06:16:19;;;;;;;52.60;28.70;;;1.00;99.90;;;;;;4161189;28;20255;-61
2022/12/05 06:18:21;;;;;;;50.13;28.27;;;1.00;99.90;;;;;;4175972;28;20263;-63
2022/12/05 06:20:22;;;;;;;61.70;29.03;;;1.00;99.90;;;;;;4161009;28;20279;-62
2022/12/05 06:22:23;;;;;;;49.37;27.87;;;1.00;99.90;;;;;;4161744;28;20316;-62
2022/12/05 06:24:24;;;;;;;49.03;28.03;;;1.00;99.90;;;;;;4143095;28;20326;-62
2022/12/05 06:26:25;;;;;;;49.63;26.73;;;1.00;99.90;;;;;;4162077;28;20259;-61
2022/12/05 06:28:26;;;;;;;41.83;24.13;;;1.00;99.90;;;;;;4142792;28;20365;-60
2022/12/05 06:30:27;;;;;;;44.37;24.70;;;1.00;99.90;;;;;;4161948;28;20268;-63
2022/12/05 06:32:29;;;;;;;43.87;26.10;;;1.00;99.90;;;;;;4160933;28;20791;-63
2022/12/05 06:34:31;;;;;;;49.73;24.83;;;1.00;99.90;;;;;;4161905;28;20279;-63
2022/12/05 06:36:32;;;;;;;41.87;23.03;;;1.00;99.90;;;;;;4160611;28;20275;-64
2022/12/05 06:38:34;;;;;;;42.80;24.00;;;1.00;99.90;;;;;;4161734;28;20259;-63
2022/12/05 06:40:42;;;;;;;39.43;23.80;;;1.00;99.90;;;;;;4160201;28;21175;-63
2022/12/05 06:42:43;;;;;;;44.90;24.27;;;1.00;99.90;;;;;;4161996;28;20263;-63
2022/12/05 06:44:44;;;;;;;54.50;26.33;;;1.10;99.90;;;;;;4160486;28;20817;-63
2022/12/05 06:46:45;;;;;;;46.37;24.63;;;1.10;99.90;;;;;;4161335;28;20270;-62
2022/12/05 06:48:46;;;;;;;63.57;26.53;;;1.10;99.90;;;;;;4161034;28;20270;-61
2022/12/05 06:50:51;;;;;;;44.80;24.13;;;1.20;99.90;;;;;;4160824;28;20279;-62
2022/12/05 06:52:53;;;;;;;48.40;26.03;;;1.20;99.90;;;;;;4160614;28;20258;-62
2022/12/05 06:54:54;;;;;;;46.17;25.03;;;1.20;99.90;;;;;;4160894;28;20271;-63
2022/12/05 06:56:55;;;;;;;49.80;26.23;;;1.30;99.90;;;;;;4143521;28;20328;-63
2022/12/05 06:58:56;;;;;;;47.30;25.63;;;1.30;99.90;;;;;;4160405;28;20313;-63
2022/12/05 07:03:17;;;;;;;51.10;26.00;;;1.20;99.90;;;;;;4160076;28;20325;-62
2022/12/05 07:05:18;;;;;;;67.47;29.00;;;1.30;99.90;;;;;;4161545;28;20267;-62
2022/12/05 07:07:19;;;;;;;53.60;27.73;;;1.30;99.90;;;;;;4160388;28;20349;-61
2022/12/05 07:09:44;;;;;;;47.53;26.27;;;1.30;99.90;;;;;;4144007;28;20829;-61
2022/12/05 07:11:50;;;;;;;39.90;24.23;;;1.20;99.90;;;;;;4160152;28;20275;-62
2022/12/05 07:13:51;;;;;;;43.00;23.97;;;1.20;99.90;;;;;;4161114;28;20278;-61
2022/12/05 07:15:52;;;;;;;43.03;24.83;;;1.20;99.90;;;;;;4160130;28;20339;-61
2022/12/05 07:17:53;;;;;;;39.43;24.00;;;1.10;99.90;;;;;;4161372;28;20334;-62
2022/12/05 07:19:55;;;;;;;44.90;27.30;;;1.20;99.90;;;;;;4160259;28;20643;-61
2022/12/05 07:21:56;;;;;;;52.43;28.40;;;1.20;99.90;;;;;;4160415;28;20298;-62
2022/12/05 07:23:57;;;;;;;49.00;26.73;;;1.20;99.90;;;;;;4159604;28;20279;-63
2022/12/05 07:25:58;;;;;;;46.80;27.23;;;1.30;99.90;;;;;;4161441;28;20297;-63
2022/12/05 07:27:59;;;;;;;56.43;31.50;;;1.30;99.90;;;;;;4160348;28;20321;-62
2022/12/05 07:30:01;;;;;;;54.70;30.60;;;1.30;99.90;;;;;;4160648;28;20786;-63
2022/12/05 07:32:02;;;;;;;52.17;29.90;;;1.40;99.90;;;;;;4160260;28;20274;-62
2022/12/05 07:34:03;;;;;;;55.70;30.07;;;1.40;99.90;;;;;;4160711;28;20313;-64
2022/12/05 07:36:08;;;;;;;62.27;30.23;;;1.40;99.90;;;;;;4160595;28;20324;-62
2022/12/05 07:38:09;;;;;;;58.30;30.40;;;1.40;99.90;;;;;;4160271;28;20262;-62
2022/12/05 07:40:11;;;;;;;57.17;30.33;;;1.40;99.90;;;;;;4160360;28;20337;-62
2022/12/05 07:42:12;;;;;;;52.80;30.20;;;1.40;99.90;;;;;;4159697;28;20294;-61
2022/12/05 07:44:13;;;;;;;57.33;29.83;;;1.50;99.90;;;;;;4160873;28;20674;-63
2022/12/05 07:46:15;;;;;;;56.23;28.93;;;1.50;99.90;;;;;;4160361;28;20263;-64
2022/12/05 07:48:16;;;;;;;58.27;32.23;;;1.60;99.90;;;;;;4160922;28;20263;-62
2022/12/05 07:50:17;;;;;;;57.73;30.67;;;1.70;99.90;;;;;;4159732;28;20271;-62
2022/12/05 07:52:18;;;;;;;56.57;28.37;;;1.80;99.90;;;;;;4163965;28;20263;-63
2022/12/05 07:54:19;;;;;;;50.13;28.90;;;1.80;99.90;;;;;;4145388;28;20279;-62
2022/12/05 07:56:21;;;;;;;53.77;26.57;;;1.90;99.90;;;;;;4164628;28;20353;-63
2022/12/05 07:58:22;;;;;;;38.67;21.70;;;2.00;99.90;;;;;;4163117;28;20797;-63
2022/12/05 08:00:24;;;;;;;34.47;19.90;;;2.00;99.90;;;;;;4164203;28;20666;-64
2022/12/05 08:02:25;;;;;;;58.27;29.53;;;2.00;99.90;;;;;;4162766;28;20350;-64
2022/12/05 08:04:26;;;;;;;49.10;26.37;;;2.10;99.90;;;;;;4163386;28;20271;-62
2022/12/05 08:06:29;;;;;;;56.70;30.17;;;2.10;99.90;;;;;;4163158;28;20271;-63
2022/12/05 08:08:30;;;;;;;68.60;34.50;;;2.10;99.90;;;;;;4163883;28;20321;-64
2022/12/05 08:10:33;;;;;;;62.03;30.10;;;2.10;99.90;;;;;;4163883;28;20267;-62
2022/12/05 08:12:34;;;;;;;62.03;31.60;;;2.10;99.90;;;;;;4163217;28;20731;-63
2022/12/05 08:14:35;;;;;;;52.80;29.77;;;2.10;99.90;;;;;;4164217;28;20254;-63
2022/12/05 08:16:36;;;;;;;52.47;27.60;;;2.10;99.90;;;;;;4163350;28;20360;-64
2022/12/05 08:18:38;;;;;;;42.50;26.63;;;2.10;99.90;;;;;;4163507;28;20275;-63
2022/12/05 08:20:39;;;;;;;45.17;26.47;;;2.00;99.90;;;;;;4162831;28;20361;-63
2022/12/05 08:22:40;;;;;;;50.93;25.90;;;2.00;99.90;;;;;;4163643;28;20725;-62
2022/12/05 08:24:42;;;;;;;40.87;24.13;;;2.00;99.90;;;;;;4162681;28;20755;-64
2022/12/05 08:26:43;;;;;;;41.97;24.87;;;2.00;99.90;;;;;;4163863;28;20385;-62
2022/12/05 08:28:44;;;;;;;42.33;23.80;;;2.00;99.90;;;;;;4162831;28;20330;-63
2022/12/05 08:30:45;;;;;;;45.93;26.37;;;1.90;99.90;;;;;;4163493;28;20267;-61
2022/12/05 08:32:46;;;;;;;43.57;26.63;;;1.90;99.90;;;;;;4162238;28;20321;-65
2022/12/05 08:34:47;;;;;;;36.47;22.80;;;1.90;99.90;;;;;;4163105;28;20262;-63
2022/12/05 08:36:49;;;;;;;44.77;27.33;;;1.90;99.90;;;;;;4162992;28;20304;-61
2022/12/05 08:38:55;;;;;;;48.10;29.00;;;1.90;99.90;;;;;;4163208;28;20267;-62
2022/12/05 08:41:02;;;;;;;51.87;28.30;;;1.90;99.90;;;;;;4163295;28;20254;-63
2022/12/05 08:43:04;;;;;;;65.87;32.60;;;1.90;99.90;;;;;;4162487;28;20255;-63
2022/12/05 08:45:05;;;;;;;59.20;31.93;;;1.90;99.90;;;;;;4163429;28;20317;-63
2022/12/05 08:47:06;;;;;;;48.37;29.67;;;1.90;99.90;;;;;;4162512;28;20738;-64
2022/12/05 08:49:09;;;;;;;57.87;31.17;;;1.90;99.90;;;;;;4163617;28;20267;-63
2022/12/05 08:51:11;;;;;;;61.10;32.53;;;2.00;99.90;;;;;;4162080;28;20329;-63
2022/12/05 08:53:13;;;;;;;111.43;56.83;;;2.00;99.90;;;;;;4163662;28;20267;-62
2022/12/05 08:55:14;;;;;;;97.63;46.70;;;1.90;99.90;;;;;;4162390;28;20260;-61
2022/12/05 08:57:15;;;;;;;100.63;53.40;;;1.90;99.90;;;;;;4163628;28;20262;-62
2022/12/05 08:59:16;;;;;;;66.67;34.40;;;1.90;99.90;;;;;;4162286;28;20620;-63
2022/12/05 09:01:19;;;;;;;49.50;28.07;;;1.90;99.90;;;;;;4163333;28;20286;-64
2022/12/05 09:03:20;;;;;;;65.50;32.50;;;1.90;99.90;;;;;;4161621;28;20665;-62
2022/12/05 09:05:22;;;;;;;63.83;33.10;;;1.90;99.90;;;;;;4163529;28;20266;-63
2022/12/05 09:07:23;;;;;;;68.47;39.17;;;2.00;99.90;;;;;;4161844;28;20719;-62
2022/12/05 09:09:24;;;;;;;70.40;37.47;;;2.00;99.90;;;;;;4163031;28;20267;-62
2022/12/05 09:11:28;;;;;;;64.27;35.33;;;2.10;99.90;;;;;;4162424;28;20320;-61
2022/12/05 09:13:29;;;;;;;69.47;37.23;;;2.10;99.90;;;;;;4162499;28;20278;-63
2022/12/05 09:15:30;;;;;;;53.73;30.77;;;2.10;99.90;;;;;;4162717;28;20674;-63
2022/12/05 09:17:32;;;;;;;48.37;27.17;;;2.10;99.90;;;;;;4162613;28;20266;-63
2022/12/05 09:19:33;;;;;;;44.37;25.40;;;2.10;99.90;;;;;;4162647;28;20329;-62
2022/12/05 09:21:34;;;;;;;52.47;27.77;;;2.10;99.90;;;;;;4161989;28;20702;-62
2022/12/05 09:23:36;;;;;;;55.70;29.97;;;2.10;99.90;;;;;;4163002;28;20655;-63
2022/12/05 09:25:37;;;;;;;52.93;30.00;;;2.10;99.90;;;;;;4161825;28;21004;-63
2022/12/05 09:27:38;;;;;;;51.80;29.10;;;2.10;99.90;;;;;;4163046;28;20308;-62
2022/12/05 09:29:39;;;;;;;52.07;30.30;;;2.20;99.90;;;;;;4161912;28;20271;-62
2022/12/05 09:31:41;;;;;;;55.27;30.37;;;2.20;99.90;;;;;;4162739;28;20328;-64
2022/12/05 09:33:43;;;;;;;55.60;30.53;;;2.30;99.90;;;;;;4161597;28;20267;-62
2022/12/05 09:35:44;;;;;;;61.13;33.20;;;2.30;99.90;;;;;;4144931;28;20279;-63
2022/12/05 09:37:45;;;;;;;47.43;27.23;;;2.30;99.90;;;;;;4161707;28;20279;-63
2022/12/05 09:39:46;;;;;;;46.80;26.40;;;2.40;99.90;;;;;;4162747;28;20259;-63
2022/12/05 09:42:09;;;;;;;44.77;25.53;;;2.40;99.90;;;;;;4161924;28;20379;-63
2022/12/05 09:44:33;;;;;;;37.13;22.77;;;2.40;99.90;;;;;;4162552;28;20263;-63
2022/12/05 09:46:52;;;;;;;40.57;22.50;;;2.60;99.90;;;;;;4124569;28;20334;-64
2022/12/05 09:48:54;;;;;;;39.03;22.50;;;2.60;99.90;;;;;;4162598;28;20279;-62
2022/12/05 09:51:01;;;;;;;41.47;25.37;;;2.60;99.90;;;;;;4161465;28;20263;-62
2022/12/05 09:53:08;;;;;;;41.53;24.80;;;2.70;99.90;;;;;;4162098;28;20662;-62
2022/12/05 09:55:15;;;;;;;42.47;25.43;;;2.80;99.90;;;;;;4161488;28;20305;-62
2022/12/05 09:57:23;;;;;;;44.50;27.43;;;2.70;99.90;;;;;;4162262;28;21096;-62
2022/12/05 09:59:24;;;;;;;45.37;24.53;;;2.70;99.90;;;;;;4143271;28;20330;-63
2022/12/05 10:01:41;;;;;;;37.37;20.67;;;2.80;99.90;;;;;;4161773;28;20727;-61
2022/12/05 10:03:47;;;;;;;34.03;21.07;;;2.80;99.90;;;;;;4161260;28;20263;-62
2022/12/05 10:05:51;;;;;;;31.97;18.20;;;2.80;99.90;;;;;;4162151;28;20678;-62
2022/12/05 10:08:07;;;;;;;35.83;19.23;;;2.80;99.90;;;;;;4161463;28;20739;-62
2022/12/05 10:10:32;;;;;;;28.37;16.50;;;2.90;99.90;;;;;;4161987;28;20275;-63
2022/12/05 10:12:52;;;;;;;25.77;15.47;;;3.00;99.90;;;;;;4160548;28;20286;-62
2022/12/05 10:15:18;;;;;;;29.30;17.75;;;3.00;99.90;;;;;;4143714;28;21261;-62
2022/12/05 10:17:26;;;;;;;31.93;15.57;;;3.00;99.90;;;;;;4161488;28;20021;-62
2022/12/05 10:19:48;;;;;;;26.97;16.07;;;3.10;99.90;;;;;;4161776;28;20747;-64
2022/12/05 10:22:11;;;;;;;23.00;14.90;;;3.10;99.90;;;;;;4160253;28;20341;-63
2022/12/05 10:24:17;;;;;;;21.37;13.37;;;3.20;99.90;;;;;;4161915;28;20761;-63
2022/12/05 10:26:21;;;;;;;24.90;14.73;;;3.20;99.90;;;;;;4160286;28;20845;-63
2022/12/05 10:28:34;;;;;;;32.17;16.27;;;3.20;99.90;;;;;;4161077;28;20903;-63
2022/12/05 10:30:36;;;;;;;21.67;13.87;;;3.20;99.90;;;;;;4160064;28;20263;-63
2022/12/05 10:32:49;;;;;;;20.77;14.13;;;3.30;99.90;;;;;;4161511;28;20259;-62
2022/12/05 10:34:58;;;;;;;23.97;14.10;;;3.30;99.90;;;;;;4160799;28;20666;-63
2022/12/05 10:37:13;;;;;;;22.03;14.10;;;3.40;99.90;;;;;;4161618;28;20321;-63
2022/12/05 10:39:14;;;;;;;20.67;12.50;;;3.40;99.90;;;;;;4160549;28;20259;-62
2022/12/05 10:41:16;;;;;;;19.67;12.60;;;3.40;99.90;;;;;;4161682;28;20262;-61
2022/12/05 10:43:27;;;;;;;24.77;14.63;;;3.30;99.90;;;;;;4160497;28;20365;-63
2022/12/05 10:45:28;;;;;;;22.13;12.40;;;3.40;99.90;;;;;;4161313;28;20678;-63
2022/12/05 10:47:30;;;;;;;23.07;14.23;;;3.30;99.90;;;;;;4142842;28;20346;-63
2022/12/05 10:49:33;;;;;;;20.93;13.00;;;3.20;99.90;;;;;;4145279;28;20322;-62
2022/12/05 10:51:35;;;;;;;22.23;13.57;;;3.20;99.90;;;;;;4144180;28;20667;-62
2022/12/05 10:53:49;;;;;;;30.17;14.93;;;3.20;99.90;;;;;;4145136;28;20325;-63